Time;durP1;ratioP1;P1;durP2;ratioP2;P2;SDS_P1;SDS_P2;PMS_P1;PMS_P2;Temp;Humidity;BMP_temperature;BMP_pressure;BME280_temperature;BME280_humidity;BME280_pressure;Samples;Min_cycle;Max_cycle;Signal;HPM_P1;HPM_P2
2021/12/14 00:01:40;;;;;;;2.00;1.17;;;-3.70;99.80;;;;;;4390468;32;20082;-67
2021/12/14 00:04:10;;;;;;;3.00;1.70;;;-3.80;99.40;;;;;;4365123;32;20097;-66
2021/12/14 00:06:39;;;;;;;2.03;1.42;;;-3.70;99.50;;;;;;4391287;32;20062;-68
2021/12/14 00:09:09;;;;;;;2.00;1.40;;;-3.70;99.50;;;;;;4389836;32;20078;-67
2021/12/14 00:17:13;;;;;;;3.30;1.58;;;-3.70;99.30;;;;;;4366935;32;20551;-67
2021/12/14 00:19:40;;;;;;;3.40;1.73;;;-3.70;99.40;;;;;;4377464;32;20101;-67
2021/12/14 00:22:20;;;;;;;1.62;1.12;;;-3.70;99.10;;;;;;4365047;32;20108;-66
2021/12/14 00:24:48;;;;;;;2.37;1.12;;;-3.70;99.20;;;;;;4390294;32;20504;-66
2021/12/14 00:27:19;;;;;;;2.47;1.23;;;-3.70;99.10;;;;;;4376839;32;20526;-67
2021/12/14 00:29:53;;;;;;;3.17;1.62;;;-3.70;99.10;;;;;;4387018;32;20113;-66
2021/12/14 00:32:27;;;;;;;1.40;1.02;;;-3.70;99.00;;;;;;4362688;32;20078;-67
2021/12/14 00:34:58;;;;;;;3.37;1.35;;;-3.70;98.80;;;;;;4376458;32;20066;-66
2021/12/14 00:37:33;;;;;;;4.07;1.60;;;-3.70;98.80;;;;;;4375250;32;20082;-66
2021/12/14 00:40:15;;;;;;;2.67;1.17;;;-3.60;98.80;;;;;;4375058;32;20157;-67
2021/12/14 00:42:42;;;;;;;1.77;1.08;;;-3.60;98.90;;;;;;4374808;32;20448;-67
2021/12/14 00:45:10;;;;;;;3.12;1.25;;;-3.70;99.30;;;;;;4387962;32;20090;-67
2021/12/14 00:47:37;;;;;;;1.77;1.35;;;-3.70;99.30;;;;;;4374637;32;20080;-67
2021/12/14 00:50:05;;;;;;;2.78;1.70;;;-3.70;99.50;;;;;;4362288;32;20078;-66
2021/12/14 00:52:34;;;;;;;3.30;1.35;;;-3.70;99.20;;;;;;4389440;32;20089;-67
2021/12/14 00:55:01;;;;;;;2.55;1.70;;;-3.70;99.40;;;;;;4377742;32;20101;-67
2021/12/14 00:57:29;;;;;;;2.70;1.50;;;-3.70;99.40;;;;;;4377722;32;20249;-66
2021/12/14 00:59:56;;;;;;;2.45;1.65;;;-3.60;99.20;;;;;;4377531;32;20489;-65
2021/12/14 01:02:25;;;;;;;2.15;1.52;;;-3.60;99.20;;;;;;4365307;32;20093;-64
2021/12/14 01:04:59;;;;;;;1.85;1.15;;;-3.60;99.00;;;;;;4390333;32;20504;-67
2021/12/14 01:07:30;;;;;;;3.42;1.67;;;-3.60;99.00;;;;;;4377412;32;20158;-67
2021/12/14 01:10:01;;;;;;;2.92;1.40;;;-3.60;98.80;;;;;;4377192;32;20452;-66
2021/12/14 01:12:40;;;;;;;4.45;1.60;;;-3.60;99.00;;;;;;4377226;32;20089;-67
2021/12/14 01:15:29;;;;;;;3.72;1.35;;;-3.60;99.00;;;;;;4389259;32;20082;-68
2021/12/14 01:18:29;;;;;;;2.22;1.33;;;-3.60;99.00;;;;;;4364956;32;20142;-65
2021/12/14 01:21:42;;;;;;;2.47;1.35;;;-3.60;98.80;;;;;;4367514;32;20513;-67
2021/12/14 01:27:24;;;;;;;2.87;1.52;;;-3.50;98.50;;;;;;4377395;32;20077;-66
2021/12/14 01:29:53;;;;;;;;;;;-3.50;98.10;;;;;;4377103;32;20179;-67
2021/12/14 01:32:24;;;;;;;3.10;1.48;;;-3.60;98.10;;;;;;4390136;32;19972;-66
2021/12/14 01:34:51;;;;;;;2.53;1.23;;;-3.50;97.80;;;;;;4364721;32;20074;-67
2021/12/14 01:37:23;;;;;;;2.17;1.60;;;-3.50;97.40;;;;;;4377082;32;20520;-67
2021/12/14 01:42:32;;;;;;;2.22;1.48;;;-3.50;97.50;;;;;;4376955;32;20649;-66
2021/12/14 01:45:06;;;;;;;;;;;-3.50;97.70;;;;;;4377636;32;20077;-66
2021/12/14 01:47:43;;;;;;;3.65;1.50;;;-3.50;97.90;;;;;;4377138;32;19976;-66
2021/12/14 01:50:20;;;;;;;4.65;1.52;;;-3.50;98.40;;;;;;4378151;32;20074;-65
2021/12/14 01:52:47;;;;;;;2.40;1.48;;;-3.60;98.20;;;;;;4364442;32;20109;-67
2021/12/14 01:55:22;;;;;;;2.03;1.48;;;-3.60;98.10;;;;;;4376719;32;20086;-67
2021/12/14 01:57:50;;;;;;;2.80;1.70;;;-3.50;98.40;;;;;;4376901;32;20097;-65
2021/12/14 02:00:33;;;;;;;3.05;1.58;;;-3.60;98.30;;;;;;4389996;32;20074;-66
2021/12/14 02:03:04;;;;;;;4.07;1.80;;;-3.60;98.30;;;;;;4376371;32;20074;-67
2021/12/14 02:05:40;;;;;;;3.12;1.60;;;-3.60;98.40;;;;;;4378880;32;20149;-65
2021/12/14 02:08:19;;;;;;;2.22;1.58;;;-3.60;98.60;;;;;;4389090;32;20070;-66
2021/12/14 02:10:47;;;;;;;2.20;1.52;;;-3.70;98.20;;;;;;4388955;32;20089;-66
2021/12/14 02:13:22;;;;;;;3.15;1.83;;;-3.60;98.00;;;;;;4376668;32;20078;-66
2021/12/14 02:15:49;;;;;;;3.80;2.08;;;-3.60;97.50;;;;;;4389491;32;20078;-67
2021/12/14 02:18:20;;;;;;;3.10;1.70;;;-3.60;97.60;;;;;;4376552;32;20150;-67
2021/12/14 02:21:09;;;;;;;2.70;1.58;;;-3.60;97.50;;;;;;4376291;32;20081;-67
2021/12/14 02:23:40;;;;;;;2.95;1.75;;;-3.60;97.30;;;;;;4376678;32;20151;-65
2021/12/14 02:26:12;;;;;;;4.78;1.58;;;-3.70;97.50;;;;;;4389041;32;20098;-66
2021/12/14 02:28:39;;;;;;;3.03;1.80;;;-3.60;97.00;;;;;;4388971;32;20189;-66
2021/12/14 02:31:11;;;;;;;2.22;1.60;;;-3.70;96.90;;;;;;4375862;32;20541;-65
2021/12/14 02:33:41;;;;;;;2.72;1.48;;;-3.60;97.10;;;;;;4364491;32;20122;-66
2021/12/14 02:36:19;;;;;;;3.40;1.75;;;-3.60;96.90;;;;;;4375863;32;20078;-66
2021/12/14 02:38:49;;;;;;;4.32;1.80;;;-3.60;96.90;;;;;;4363652;32;20147;-67
2021/12/14 02:41:16;;;;;;;3.85;2.00;;;-3.60;97.00;;;;;;4364277;32;20609;-66
2021/12/14 02:43:57;;;;;;;3.60;1.65;;;-3.60;96.70;;;;;;4363926;32;20084;-66
2021/12/14 02:46:35;;;;;;;2.55;1.67;;;-3.60;96.30;;;;;;4363745;32;20082;-66
2021/12/14 02:49:07;;;;;;;4.82;1.58;;;-3.60;96.20;;;;;;4350852;32;20098;-65
2021/12/14 02:51:55;;;;;;;2.25;1.70;;;-3.60;96.10;;;;;;4376117;32;20081;-65
2021/12/14 02:54:34;;;;;;;4.05;2.20;;;-3.60;95.90;;;;;;4377334;32;20513;-66
2021/12/14 02:57:14;;;;;;;2.58;1.80;;;-3.60;95.30;;;;;;4375736;32;20449;-66
2021/12/14 02:59:43;;;;;;;3.03;1.52;;;-3.60;95.40;;;;;;4388523;32;20452;-66
2021/12/14 03:02:31;;;;;;;3.28;2.00;;;-3.60;95.30;;;;;;4375918;32;20155;-64
2021/12/14 03:05:10;;;;;;;4.40;1.95;;;-3.60;95.30;;;;;;4375496;32;20062;-67
2021/12/14 03:07:44;;;;;;;4.32;1.98;;;-3.60;95.00;;;;;;4363218;32;20081;-65
2021/12/14 03:10:32;;;;;;;4.85;1.90;;;-3.60;94.90;;;;;;4363368;32;20516;-66
2021/12/14 03:13:04;;;;;;;5.22;1.80;;;-3.60;94.90;;;;;;4386851;32;20085;-65
2021/12/14 03:15:41;;;;;;;5.25;1.90;;;-3.60;94.90;;;;;;4375376;32;20101;-65
2021/12/14 03:18:11;;;;;;;4.28;1.60;;;-3.60;94.70;;;;;;4363140;32;20457;-66
2021/12/14 03:23:31;;;;;;;2.43;1.60;;;-3.60;94.60;;;;;;3857184;37;20062;-66
2021/12/14 03:26:01;;;;;;;4.25;1.75;;;-3.60;94.60;;;;;;4419081;32;20301;-65
2021/12/14 03:28:30;;;;;;;2.85;1.65;;;-3.60;94.50;;;;;;4418246;32;20566;-65
2021/12/14 03:31:03;;;;;;;4.53;1.73;;;-3.60;94.30;;;;;;4418390;32;20092;-65
2021/12/14 03:33:36;;;;;;;2.35;1.50;;;-3.60;94.30;;;;;;4405532;32;20080;-65
2021/12/14 03:36:19;;;;;;;5.53;2.28;;;-3.60;94.10;;;;;;4418169;32;20068;-65
2021/12/14 03:39:07;;;;;;;2.45;1.55;;;-3.60;93.70;;;;;;4418325;32;20160;-66
2021/12/14 03:41:41;;;;;;;4.25;1.60;;;-3.60;93.30;;;;;;4418116;32;20526;-64
2021/12/14 03:44:15;;;;;;;3.40;1.60;;;-3.60;93.40;;;;;;4418231;32;20085;-64
2021/12/14 03:46:57;;;;;;;3.78;1.75;;;-3.60;93.40;;;;;;4418348;32;20089;-65
2021/12/14 03:49:35;;;;;;;1.75;1.50;;;-3.60;93.20;;;;;;4393094;32;20463;-63
2021/12/14 03:52:07;;;;;;;5.47;1.70;;;-3.60;93.30;;;;;;4406034;32;20069;-64
2021/12/14 03:54:34;;;;;;;3.97;1.60;;;-3.60;93.30;;;;;;4405328;32;20065;-64
2021/12/14 03:57:01;;;;;;;3.15;1.42;;;-3.60;93.20;;;;;;4389739;32;20066;-64
2021/12/14 03:59:31;;;;;;;6.80;2.00;;;-3.60;93.30;;;;;;4389897;32;20058;-64
2021/12/14 04:02:01;;;;;;;3.47;1.50;;;-3.60;93.00;;;;;;4402466;32;20188;-64
2021/12/14 04:04:37;;;;;;;2.78;1.77;;;-3.60;92.50;;;;;;4390391;32;20165;-64
2021/12/14 04:07:10;;;;;;;4.10;1.30;;;-3.60;92.40;;;;;;4390145;32;20085;-65
2021/12/14 04:09:38;;;;;;;2.05;1.02;;;-3.60;92.60;;;;;;4390554;32;20149;-64
2021/12/14 04:12:08;;;;;;;4.50;1.55;;;-3.50;92.50;;;;;;4389663;32;20080;-64
2021/12/14 04:14:40;;;;;;;3.53;1.40;;;-3.60;92.60;;;;;;4389760;32;20068;-64
2021/12/14 04:17:08;;;;;;;4.22;1.33;;;-3.60;92.60;;;;;;4402596;32;20589;-65
2021/12/14 04:19:35;;;;;;;3.28;1.60;;;-3.60;92.70;;;;;;4389644;32;20074;-64
2021/12/14 04:22:13;;;;;;;2.17;1.20;;;-3.60;92.70;;;;;;4389207;32;20104;-64
2021/12/14 04:24:43;;;;;;;2.90;1.27;;;-3.60;92.40;;;;;;4401897;32;20077;-65
2021/12/14 04:27:18;;;;;;;4.62;1.40;;;-3.60;92.40;;;;;;4403554;32;20513;-67
2021/12/14 04:29:45;;;;;;;1.50;1.10;;;-3.60;92.20;;;;;;4403051;32;20088;-66
2021/12/14 04:32:14;;;;;;;5.87;1.30;;;-3.60;92.00;;;;;;4389522;32;20455;-65
2021/12/14 04:34:41;;;;;;;1.83;1.20;;;-3.60;91.80;;;;;;4380405;32;20093;-65
2021/12/14 04:37:09;;;;;;;2.72;0.98;;;-3.60;91.70;;;;;;4366979;32;20092;-66
2021/12/14 04:39:42;;;;;;;1.77;1.02;;;-3.60;91.60;;;;;;4379847;32;20112;-66
2021/12/14 04:53:06;;;;;;;3.33;1.52;;;-3.60;90.60;;;;;;4418863;32;20061;-65
2021/12/14 04:55:33;;;;;;;4.45;1.40;;;-3.60;90.50;;;;;;4412161;32;20101;-65
2021/12/14 04:57:59;;;;;;;2.40;1.20;;;-3.60;91.00;;;;;;4390155;32;20149;-65
2021/12/14 05:00:32;;;;;;;2.75;0.98;;;-3.60;89.90;;;;;;4404531;32;20085;-66
2021/12/14 05:03:01;;;;;;;2.45;1.27;;;-3.60;89.30;;;;;;4403214;32;20057;-66
2021/12/14 05:05:46;;;;;;;2.10;1.25;;;-3.50;88.10;;;;;;4404026;32;20085;-64
2021/12/14 05:11:04;;;;;;;4.12;1.25;;;-3.40;86.10;;;;;;4402762;32;20097;-65
2021/12/14 05:13:40;;;;;;;7.50;1.35;;;-3.40;85.90;;;;;;4402831;32;20073;-66
2021/12/14 05:16:08;;;;;;;2.27;0.90;;;-3.40;85.30;;;;;;4377890;32;20526;-66
2021/12/14 05:18:35;;;;;;;4.00;1.17;;;-3.40;85.70;;;;;;4389952;32;20182;-66
2021/12/14 05:21:03;;;;;;;1.80;0.90;;;-3.40;84.20;;;;;;4377232;32;20105;-64
2021/12/14 05:23:34;;;;;;;3.58;1.02;;;-3.30;83.80;;;;;;4389830;32;20085;-65
2021/12/14 05:26:03;;;;;;;3.28;0.88;;;-3.40;83.80;;;;;;4402307;32;20070;-64
2021/12/14 05:28:32;;;;;;;1.92;0.80;;;-3.30;83.50;;;;;;4390207;32;20142;-65
2021/12/14 05:30:59;;;;;;;5.37;0.80;;;-3.30;83.50;;;;;;4390034;32;20091;-64
2021/12/14 05:33:31;;;;;;;2.83;0.85;;;-3.30;83.30;;;;;;4390353;32;20082;-63
2021/12/14 05:36:06;;;;;;;2.33;1.15;;;-3.30;82.40;;;;;;4389684;32;20073;-65
2021/12/14 05:38:46;;;;;;;2.70;0.93;;;-3.30;82.50;;;;;;4402442;32;20524;-64
2021/12/14 05:44:04;;;;;;;2.00;1.10;;;-3.30;82.50;;;;;;4397637;32;20092;-65
2021/12/14 05:46:31;;;;;;;3.35;0.98;;;-3.30;82.40;;;;;;4409283;32;20460;-65
2021/12/14 05:49:04;;;;;;;2.40;0.70;;;-3.30;82.60;;;;;;4384376;32;20115;-67
2021/12/14 05:51:32;;;;;;;1.50;0.98;;;-3.30;82.40;;;;;;4392012;32;20085;-66
2021/12/14 05:54:00;;;;;;;1.80;1.10;;;-3.30;82.10;;;;;;4404420;32;20090;-64
2021/12/14 05:56:29;;;;;;;6.07;1.10;;;-3.30;82.30;;;;;;4368134;32;20149;-64
2021/12/14 05:58:58;;;;;;;3.42;1.10;;;-3.30;82.20;;;;;;4395691;32;20589;-66
2021/12/14 06:01:30;;;;;;;2.60;0.70;;;-3.30;82.50;;;;;;4379363;32;20166;-66
2021/12/14 06:04:07;;;;;;;1.98;0.80;;;-3.30;82.90;;;;;;4379943;32;20066;-65
2021/12/14 06:06:41;;;;;;;3.12;0.55;;;-3.30;83.00;;;;;;4379473;32;20087;-65
2021/12/14 06:09:27;;;;;;;2.85;0.88;;;-3.30;83.70;;;;;;4379540;32;20600;-66
2021/12/14 06:12:05;;;;;;;1.48;0.88;;;-3.30;84.20;;;;;;4367162;32;20074;-66
2021/12/14 06:14:32;;;;;;;1.42;0.65;;;-3.30;84.40;;;;;;4379227;32;20226;-65
2021/12/14 06:17:05;;;;;;;3.35;1.00;;;-3.30;84.20;;;;;;4379765;32;20530;-64
2021/12/14 06:19:41;;;;;;;2.05;1.10;;;-3.30;84.50;;;;;;4378857;32;20527;-66
2021/12/14 06:22:17;;;;;;;1.20;0.90;;;-3.30;84.70;;;;;;4379536;32;20077;-65
2021/12/14 06:24:52;;;;;;;1.15;0.90;;;-3.30;85.00;;;;;;4379762;32;20066;-66
2021/12/14 06:27:23;;;;;;;1.48;1.00;;;-3.40;85.60;;;;;;4391761;32;20072;-66
2021/12/14 06:30:16;;;;;;;2.80;1.37;;;-3.40;85.70;;;;;;4379043;32;20069;-65
2021/12/14 06:32:51;;;;;;;1.85;0.90;;;-3.40;85.50;;;;;;4379939;32;20503;-66
2021/12/14 06:35:24;;;;;;;4.68;1.20;;;-3.40;85.60;;;;;;4392835;32;20512;-66
2021/12/14 06:38:24;;;;;;;4.22;1.27;;;-3.30;85.80;;;;;;4391284;32;20065;-66
2021/12/14 06:41:23;;;;;;;5.75;1.40;;;-3.30;86.30;;;;;;4378874;32;20069;-65
2021/12/14 06:43:54;;;;;;;5.97;1.20;;;-3.30;86.00;;;;;;4392366;32;20085;-66
2021/12/14 06:46:26;;;;;;;2.95;1.20;;;-3.30;86.50;;;;;;4366861;32;20086;-66
2021/12/14 06:49:00;;;;;;;4.60;1.20;;;-3.30;87.00;;;;;;4378950;32;20077;-66
2021/12/14 06:51:54;;;;;;;3.97;1.60;;;-3.30;87.10;;;;;;4391222;32;20078;-66
2021/12/14 06:54:25;;;;;;;3.58;1.08;;;-3.20;87.00;;;;;;4391171;32;20093;-68
2021/12/14 06:56:56;;;;;;;6.10;1.70;;;-3.20;86.60;;;;;;4387572;32;20497;-72
2021/12/14 06:59:26;;;;;;;5.28;1.50;;;-3.20;86.40;;;;;;4386270;32;20155;-73
2021/12/14 07:02:05;;;;;;;5.25;1.75;;;-3.10;85.80;;;;;;4370677;32;20090;-70
2021/12/14 07:04:35;;;;;;;2.40;1.25;;;-3.10;85.90;;;;;;4367555;32;20154;-72
2021/12/14 07:07:08;;;;;;;3.40;1.42;;;-3.10;86.00;;;;;;4387483;32;20082;-70
2021/12/14 07:09:50;;;;;;;3.20;1.10;;;-3.00;85.90;;;;;;4377225;32;20082;-72
2021/12/14 07:12:21;;;;;;;3.25;1.35;;;-3.10;85.70;;;;;;4378734;32;20101;-71
2021/12/14 07:14:53;;;;;;;6.85;1.50;;;-3.10;85.50;;;;;;4366409;32;20188;-72
2021/12/14 07:17:46;;;;;;;4.93;1.12;;;-3.10;85.60;;;;;;4373800;32;20509;-71
2021/12/14 07:20:22;;;;;;;3.92;1.37;;;-3.00;85.00;;;;;;4372429;32;20097;-71
2021/12/14 07:23:01;;;;;;;4.00;1.15;;;-3.00;85.30;;;;;;4381622;32;20070;-72
2021/12/14 07:25:36;;;;;;;2.78;0.98;;;-3.00;84.70;;;;;;4374003;32;20162;-71
2021/12/14 07:28:11;;;;;;;5.82;1.52;;;-2.90;84.50;;;;;;4367868;32;20081;-74
2021/12/14 07:30:41;;;;;;;2.75;1.17;;;-2.90;84.70;;;;;;4373805;32;20508;-71
2021/12/14 07:33:19;;;;;;;6.07;1.20;;;-3.00;84.60;;;;;;4384584;32;20606;-73
2021/12/14 07:35:55;;;;;;;2.33;1.52;;;-2.90;84.80;;;;;;4378778;32;20081;-72
2021/12/14 07:38:47;;;;;;;3.08;1.40;;;-2.90;83.90;;;;;;4369621;32;20090;-77
2021/12/14 07:41:23;;;;;;;4.25;1.25;;;-2.90;83.70;;;;;;4374555;32;20059;-71
2021/12/14 07:44:10;;;;;;;5.00;1.15;;;-2.90;83.60;;;;;;4369229;32;20084;-71
2021/12/14 07:46:52;;;;;;;2.25;1.10;;;-2.90;83.40;;;;;;4377145;32;20102;-71
2021/12/14 07:49:32;;;;;;;2.22;1.15;;;-2.90;83.50;;;;;;4378156;32;20117;-72
2021/12/14 07:52:08;;;;;;;5.68;1.48;;;-2.90;84.10;;;;;;4374337;32;20081;-66
2021/12/14 07:54:41;;;;;;;3.87;1.30;;;-2.80;83.50;;;;;;4384493;32;20085;-71
2021/12/14 07:57:19;;;;;;;2.40;1.15;;;-2.90;84.10;;;;;;4381553;32;20077;-67
2021/12/14 07:59:54;;;;;;;7.20;1.70;;;-2.80;84.20;;;;;;4365149;32;20161;-68
2021/12/14 08:02:28;;;;;;;5.03;1.62;;;-2.90;83.40;;;;;;4364804;32;20081;-67
2021/12/14 08:05:22;;;;;;;3.05;1.15;;;-2.80;83.80;;;;;;4385795;32;20081;-70
2021/12/14 08:08:30;;;;;;;2.92;1.27;;;-2.70;83.50;;;;;;4376873;32;20065;-70
2021/12/14 08:11:16;;;;;;;6.80;1.45;;;-2.80;83.50;;;;;;4379762;32;20077;-69
2021/12/14 08:13:47;;;;;;;5.18;1.58;;;-2.90;83.40;;;;;;4389849;32;20090;-70
2021/12/14 08:16:13;;;;;;;5.50;1.58;;;-2.90;82.80;;;;;;4372221;32;20090;-70
2021/12/14 08:18:40;;;;;;;11.40;1.90;;;-2.80;82.60;;;;;;4360887;32;20150;-67
2021/12/14 08:21:19;;;;;;;2.67;1.45;;;-2.80;82.70;;;;;;4372753;32;20119;-67
2021/12/14 08:24:05;;;;;;;3.87;1.23;;;-2.80;82.70;;;;;;4375143;32;20467;-71
2021/12/14 08:26:43;;;;;;;8.07;1.73;;;-2.90;82.50;;;;;;4379969;32;20058;-71
2021/12/14 08:29:20;;;;;;;4.20;1.20;;;-3.00;83.80;;;;;;4362137;32;20077;-70
2021/12/14 08:32:12;;;;;;;3.12;1.10;;;-2.90;84.10;;;;;;4355351;32;20058;-71
2021/12/14 08:34:44;;;;;;;5.50;1.48;;;-2.90;83.70;;;;;;4367578;32;20088;-69
2021/12/14 08:37:26;;;;;;;6.15;1.65;;;-2.80;84.00;;;;;;4373786;32;20097;-75
2021/12/14 08:40:01;;;;;;;3.50;1.50;;;-2.80;83.70;;;;;;4360356;32;20178;-77
2021/12/14 08:42:50;;;;;;;3.50;1.37;;;-2.80;83.30;;;;;;4358232;32;20090;-76
2021/12/14 08:45:27;;;;;;;3.67;1.40;;;-2.70;83.20;;;;;;4365733;32;20064;-75
2021/12/14 08:48:02;;;;;;;8.48;1.70;;;-2.70;83.00;;;;;;4381320;32;20565;-75
2021/12/14 08:50:31;;;;;;;6.72;1.90;;;-2.90;83.40;;;;;;4366697;32;20089;-72
2021/12/14 08:52:59;;;;;;;5.47;1.67;;;-2.80;83.40;;;;;;4368103;32;20097;-72
2021/12/14 08:55:32;;;;;;;2.95;1.48;;;-2.80;83.50;;;;;;4365679;32;20120;-72
2021/12/14 08:58:00;;;;;;;2.67;1.15;;;-2.80;84.00;;;;;;4368551;32;20082;-73
2021/12/14 09:00:43;;;;;;;6.22;1.55;;;-2.90;85.50;;;;;;4365968;32;20470;-73
2021/12/14 09:03:14;;;;;;;4.87;1.83;;;-2.90;84.50;;;;;;4385772;32;20093;-73
2021/12/14 09:05:46;;;;;;;4.05;1.80;;;-2.80;84.70;;;;;;4378819;32;20109;-73
2021/12/14 09:08:15;;;;;;;6.45;1.48;;;-2.80;85.30;;;;;;4366558;32;20189;-73
2021/12/14 09:10:45;;;;;;;4.53;1.40;;;-2.90;85.90;;;;;;4367771;32;20134;-74
2021/12/14 09:13:14;;;;;;;3.28;1.42;;;-2.90;86.00;;;;;;4382413;32;20107;-75
2021/12/14 09:15:54;;;;;;;4.12;1.75;;;-2.80;85.80;;;;;;4368585;32;20155;-73
2021/12/14 09:18:21;;;;;;;2.47;1.42;;;-2.80;86.00;;;;;;4358251;32;20055;-73
2021/12/14 09:21:01;;;;;;;4.55;1.50;;;-2.80;86.00;;;;;;4366686;32;20509;-71
2021/12/14 09:23:39;;;;;;;6.15;1.80;;;-2.70;86.00;;;;;;4374811;32;20074;-71
2021/12/14 09:26:13;;;;;;;4.07;1.50;;;-2.80;85.90;;;;;;4361750;32;20066;-72
2021/12/14 09:28:40;;;;;;;5.37;1.50;;;-2.80;85.90;;;;;;4362055;32;20156;-71
2021/12/14 09:31:10;;;;;;;4.28;1.23;;;-2.80;85.60;;;;;;4364639;32;20174;-72
2021/12/14 09:33:39;;;;;;;6.35;1.40;;;-2.80;85.80;;;;;;4364657;32;20088;-73
2021/12/14 09:36:12;;;;;;;8.52;1.75;;;-2.80;85.20;;;;;;4364754;32;20174;-73
2021/12/14 09:38:47;;;;;;;5.43;1.70;;;-2.80;85.40;;;;;;4365084;32;20171;-73
2021/12/14 09:41:19;;;;;;;4.18;1.20;;;-2.70;85.60;;;;;;4364478;32;20457;-72
2021/12/14 09:43:47;;;;;;;2.78;1.30;;;-2.70;85.80;;;;;;4383744;32;20104;-71
2021/12/14 09:46:16;;;;;;;2.30;1.40;;;-2.60;85.90;;;;;;4370231;32;20455;-73
2021/12/14 09:48:48;;;;;;;4.68;1.50;;;-2.60;85.70;;;;;;4370413;32;20070;-73
2021/12/14 09:51:22;;;;;;;8.07;1.73;;;-2.60;85.30;;;;;;4372165;32;20078;-74
2021/12/14 09:53:54;;;;;;;3.50;1.37;;;-2.60;85.60;;;;;;4371418;32;20077;-71
2021/12/14 09:56:24;;;;;;;3.55;1.37;;;-2.60;85.10;;;;;;4385779;32;20075;-75
2021/12/14 09:58:58;;;;;;;2.05;1.15;;;-2.60;85.60;;;;;;4367687;32;20451;-75
2021/12/14 10:01:43;;;;;;;3.47;1.55;;;-2.50;85.50;;;;;;4380039;32;20213;-75
2021/12/14 10:04:19;;;;;;;2.62;1.40;;;-2.50;85.70;;;;;;4378875;32;20105;-76
2021/12/14 10:06:49;;;;;;;4.20;1.60;;;-2.40;85.60;;;;;;4391579;32;20078;-72
2021/12/14 10:09:22;;;;;;;2.25;1.33;;;-2.40;85.30;;;;;;4391943;32;20061;-72
2021/12/14 10:14:33;;;;;;;5.45;1.40;;;-2.40;85.80;;;;;;4392065;32;20095;-74
2021/12/14 10:17:00;;;;;;;4.75;1.58;;;-2.50;86.10;;;;;;4366460;32;20532;-75
2021/12/14 10:19:30;;;;;;;2.67;1.48;;;-2.40;86.20;;;;;;4392394;32;20070;-74
2021/12/14 10:22:05;;;;;;;4.70;1.27;;;-2.40;86.20;;;;;;4392761;32;20508;-73
2021/12/14 10:24:34;;;;;;;2.75;1.60;;;-2.40;86.50;;;;;;4391800;32;20065;-75
2021/12/14 10:27:10;;;;;;;4.37;1.40;;;-2.40;86.50;;;;;;4378886;32;20086;-75
2021/12/14 10:29:36;;;;;;;;;;;-2.40;86.50;;;;;;4367123;32;20097;-79
2021/12/14 10:32:21;;;;;;;4.00;1.33;;;-2.40;86.60;;;;;;4379427;32;19981;-77
2021/12/14 10:34:58;;;;;;;3.75;1.60;;;-2.40;86.60;;;;;;4391444;32;20077;-76
2021/12/14 10:38:21;;;;;;;4.37;1.15;;;-2.40;86.10;;;;;;4391510;32;20077;-79
2021/12/14 10:43:21;;;;;;;3.87;1.55;;;-2.30;86.40;;;;;;4376557;32;20097;-74
2021/12/14 10:46:26;;;;;;;4.82;1.42;;;-2.30;85.80;;;;;;4363781;32;20066;-74
2021/12/14 10:48:54;;;;;;;6.70;1.48;;;-2.30;86.20;;;;;;4354871;32;20157;-73
2021/12/14 10:51:27;;;;;;;5.25;1.67;;;-2.30;86.00;;;;;;4359598;32;20088;-73
2021/12/14 10:53:57;;;;;;;3.00;1.10;;;-2.30;86.30;;;;;;4391116;32;20508;-72
2021/12/14 10:56:35;;;;;;;2.92;1.40;;;-2.30;86.40;;;;;;4378248;32;20073;-72
2021/12/14 10:59:05;;;;;;;2.30;1.10;;;-2.30;86.50;;;;;;4366833;32;20077;-71
2021/12/14 11:01:34;;;;;;;3.00;1.27;;;-2.30;86.80;;;;;;4389365;32;20516;-75
2021/12/14 11:04:10;;;;;;;2.05;1.10;;;-2.30;87.00;;;;;;4383889;32;20081;-75
2021/12/14 11:06:43;;;;;;;5.32;1.23;;;-2.20;87.10;;;;;;4392409;32;20081;-72
2021/12/14 11:09:53;;;;;;;1.17;0.95;;;-2.20;87.50;;;;;;4365448;32;20081;-70
2021/12/14 11:12:25;;;;;;;2.10;1.48;;;-2.20;87.40;;;;;;4390744;32;20090;-68
2021/12/14 11:15:16;;;;;;;1.73;1.27;;;-2.30;87.30;;;;;;4365041;32;20097;-69
2021/12/14 11:20:52;;;;;;;3.20;1.58;;;-2.30;87.90;;;;;;4382308;32;20070;-70
2021/12/14 11:23:25;;;;;;;2.30;1.30;;;-2.30;88.50;;;;;;4384806;32;20488;-70
2021/12/14 11:25:51;;;;;;;2.65;1.40;;;-2.30;88.90;;;;;;4362170;32;20600;-71
2021/12/14 11:28:38;;;;;;;4.55;1.70;;;-2.30;89.10;;;;;;4384742;32;20101;-71
2021/12/14 11:31:32;;;;;;;3.33;1.80;;;-2.30;89.50;;;;;;4369501;32;20254;-63
2021/12/14 11:34:34;;;;;;;3.55;1.67;;;-2.40;89.90;;;;;;4385778;32;20185;-76
2021/12/14 11:37:08;;;;;;;3.70;1.65;;;-2.40;90.20;;;;;;4372451;32;20106;-74
2021/12/14 11:39:54;;;;;;;6.25;1.35;;;-2.40;90.50;;;;;;4386296;32;20090;-75
2021/12/14 11:42:24;;;;;;;4.47;1.52;;;-2.40;90.70;;;;;;4380899;32;20094;-74
2021/12/14 11:45:09;;;;;;;4.45;1.37;;;-2.40;91.00;;;;;;4382343;32;20077;-73
2021/12/14 11:47:42;;;;;;;2.95;1.40;;;-2.50;91.30;;;;;;4384934;32;20445;-72
2021/12/14 11:50:20;;;;;;;3.12;1.62;;;-2.50;91.60;;;;;;4364403;32;20119;-75
2021/12/14 11:53:10;;;;;;;3.35;1.20;;;-2.60;91.70;;;;;;4375225;32;20077;-74
2021/12/14 11:56:00;;;;;;;4.72;1.58;;;-2.50;92.10;;;;;;4388026;32;20093;-75
2021/12/14 11:58:48;;;;;;;3.47;1.60;;;-2.50;92.50;;;;;;4383128;32;20076;-74
2021/12/14 12:01:20;;;;;;;5.50;1.75;;;-2.60;92.70;;;;;;4382365;32;20107;-69
2021/12/14 12:03:55;;;;;;;2.85;1.25;;;-2.60;92.90;;;;;;4378596;32;20166;-70
2021/12/14 12:09:51;;;;;;;5.25;2.08;;;-2.60;93.50;;;;;;4358151;32;20190;-73
2021/12/14 12:12:31;;;;;;;6.53;1.80;;;-2.60;93.70;;;;;;4370266;32;20064;-69
2021/12/14 12:15:03;;;;;;;2.62;1.70;;;-2.60;94.10;;;;;;4375917;32;20062;-69
2021/12/14 12:17:58;;;;;;;3.83;1.42;;;-2.70;94.20;;;;;;4362343;32;20174;-74
2021/12/14 12:20:43;;;;;;;5.25;1.60;;;-2.70;94.40;;;;;;4371941;32;20109;-70
2021/12/14 12:23:26;;;;;;;5.25;1.60;;;-2.70;94.80;;;;;;4357298;32;20081;-74
2021/12/14 12:26:09;;;;;;;2.62;1.62;;;-2.70;95.10;;;;;;4387164;32;20073;-72
2021/12/14 12:28:43;;;;;;;4.05;1.65;;;-2.80;95.40;;;;;;4365524;32;20129;-75
2021/12/14 12:31:16;;;;;;;2.80;1.77;;;-2.70;95.70;;;;;;4357231;32;20170;-74
2021/12/14 12:33:49;;;;;;;5.40;1.55;;;-2.70;96.10;;;;;;4363999;32;20513;-75
2021/12/14 12:36:18;;;;;;;3.72;1.80;;;-2.80;96.40;;;;;;4366842;32;20242;-75
2021/12/14 12:39:16;;;;;;;3.40;1.92;;;-2.70;96.70;;;;;;4367750;32;20105;-73
2021/12/14 12:41:52;;;;;;;5.32;1.65;;;-2.80;97.00;;;;;;4386073;32;20527;-73
2021/12/14 12:44:40;;;;;;;4.12;2.25;;;-2.80;97.40;;;;;;4367917;32;20116;-74
2021/12/14 12:47:20;;;;;;;3.83;1.75;;;-2.80;97.80;;;;;;4378787;32;20063;-72
2021/12/14 12:49:48;;;;;;;3.97;1.80;;;-2.80;98.10;;;;;;4372635;32;20066;-72
2021/12/14 12:52:22;;;;;;;2.70;1.52;;;-2.80;98.20;;;;;;4378682;32;20136;-72
2021/12/14 12:55:05;;;;;;;2.80;1.45;;;-2.80;98.60;;;;;;4361562;32;20129;-73
2021/12/14 12:58:02;;;;;;;7.85;2.10;;;-2.80;99.10;;;;;;4374544;32;20077;-75
2021/12/14 13:00:42;;;;;;;6.07;1.60;;;-2.80;99.50;;;;;;4380794;32;20089;-76
2021/12/14 13:03:17;;;;;;;4.45;1.70;;;-2.80;99.80;;;;;;4381777;32;20070;-74
2021/12/14 13:06:07;;;;;;;4.18;1.70;;;-2.80;99.90;;;;;;4383910;32;20133;-76
2021/12/14 13:08:41;;;;;;;4.32;1.73;;;-2.80;99.90;;;;;;4380369;32;20117;-71
2021/12/14 13:11:35;;;;;;;3.80;1.87;;;-2.80;99.90;;;;;;4496632;27;20110;-65
2021/12/14 16:18:00;;;;;;;3.78;1.90;;;-3.00;99.90;;;;;;3830894;37;20515;-71
2021/12/14 16:20:42;;;;;;;3.70;1.45;;;-3.00;99.90;;;;;;4377191;32;20077;-72
2021/12/14 16:23:13;;;;;;;2.92;1.52;;;-3.00;99.90;;;;;;4391007;32;20066;-70
2021/12/14 16:25:49;;;;;;;4.80;1.98;;;-3.00;99.90;;;;;;4393721;32;20517;-72
2021/12/14 16:28:25;;;;;;;3.60;2.03;;;-3.00;99.90;;;;;;4396431;32;20483;-72
2021/12/14 16:31:09;;;;;;;2.40;1.57;;;-3.00;99.90;;;;;;4380122;32;20454;-71
2021/12/14 16:33:59;;;;;;;5.55;1.70;;;-2.90;99.90;;;;;;4366380;32;20073;-72
2021/12/14 16:36:31;;;;;;;4.68;1.58;;;-2.90;99.90;;;;;;4378287;32;20062;-72
2021/12/14 16:39:05;;;;;;;6.32;2.17;;;-2.90;99.90;;;;;;4390782;32;20073;-71
2021/12/14 16:41:40;;;;;;;3.70;1.65;;;-2.90;99.90;;;;;;4377865;32;20519;-71
2021/12/14 16:44:16;;;;;;;5.00;1.50;;;-2.90;99.90;;;;;;4390986;32;20073;-72
2021/12/14 16:46:58;;;;;;;4.55;1.95;;;-2.90;99.90;;;;;;4366021;32;20442;-70
2021/12/14 16:49:30;;;;;;;3.00;1.50;;;-2.90;99.90;;;;;;4365284;32;20535;-71
2021/12/14 16:52:11;;;;;;;4.82;1.62;;;-2.90;99.90;;;;;;4391221;32;20097;-71
2021/12/14 16:54:42;;;;;;;3.97;1.60;;;-2.90;99.90;;;;;;4395235;32;20074;-71
2021/12/14 16:57:15;;;;;;;2.40;1.30;;;-2.90;99.90;;;;;;4377544;32;20145;-71
2021/12/14 16:59:49;;;;;;;2.97;1.27;;;-2.90;99.90;;;;;;4390320;32;20071;-71
2021/12/14 17:02:27;;;;;;;2.47;1.50;;;-2.90;99.90;;;;;;4389741;32;20526;-72
2021/12/14 17:04:56;;;;;;;2.12;1.35;;;-2.90;99.90;;;;;;4377609;32;20085;-72
2021/12/14 17:07:30;;;;;;;2.67;1.65;;;-2.90;99.90;;;;;;4378087;32;20074;-72
2021/12/14 17:09:58;;;;;;;2.20;1.50;;;-2.90;99.90;;;;;;4365901;32;20088;-72
2021/12/14 17:12:25;;;;;;;2.33;1.33;;;-2.80;99.90;;;;;;4376109;32;20089;-70
2021/12/14 17:14:58;;;;;;;2.05;1.42;;;-2.90;99.90;;;;;;4362708;32;20157;-72
2021/12/14 17:17:29;;;;;;;2.40;1.30;;;-2.90;99.90;;;;;;4362542;32;20100;-72